sensor_id;sensor_type;location;lat;lon;timestamp;P1;durP1;ratioP1;P2;durP2;ratioP2
64738;SDS011;51175;51.186;0.276;2023-08-17T00:00:15;16.27;;;9.60;;
64738;SDS011;51175;51.186;0.276;2023-08-17T00:00:48;14.90;;;9.40;;
64738;SDS011;51175;51.186;0.276;2023-08-17T00:01:19;15.68;;;7.28;;
64738;SDS011;51175;51.186;0.276;2023-08-17T00:01:49;17.45;;;10.15;;
64738;SDS011;51175;51.186;0.276;2023-08-17T00:02:20;15.35;;;9.30;;
64738;SDS011;51175;51.186;0.276;2023-08-17T00:02:51;16.45;;;8.65;;
64738;SDS011;51175;51.186;0.276;2023-08-17T00:03:21;15.02;;;8.70;;
64738;SDS011;51175;51.186;0.276;2023-08-17T00:03:51;14.20;;;8.57;;
64738;SDS011;51175;51.186;0.276;2023-08-17T00:04:22;16.25;;;9.40;;
64738;SDS011;51175;51.186;0.276;2023-08-17T00:04:52;15.75;;;9.18;;
64738;SDS011;51175;51.186;0.276;2023-08-17T00:05:22;17.02;;;8.88;;
64738;SDS011;51175;51.186;0.276;2023-08-17T00:05:53;17.35;;;9.52;;
64738;SDS011;51175;51.186;0.276;2023-08-17T00:06:23;14.38;;;8.80;;
64738;SDS011;51175;51.186;0.276;2023-08-17T00:06:53;18.50;;;9.55;;
64738;SDS011;51175;51.186;0.276;2023-08-17T00:07:23;17.08;;;9.65;;
64738;SDS011;51175;51.186;0.276;2023-08-17T00:07:54;16.17;;;8.65;;
64738;SDS011;51175;51.186;0.276;2023-08-17T00:08:24;18.77;;;9.50;;
64738;SDS011;51175;51.186;0.276;2023-08-17T00:08:55;14.43;;;8.15;;
64738;SDS011;51175;51.186;0.276;2023-08-17T00:09:25;15.70;;;7.80;;
64738;SDS011;51175;51.186;0.276;2023-08-17T00:09:56;15.38;;;8.35;;
64738;SDS011;51175;51.186;0.276;2023-08-17T00:10:26;18.27;;;9.30;;
64738;SDS011;51175;51.186;0.276;2023-08-17T00:10:57;16.20;;;8.57;;
64738;SDS011;51175;51.186;0.276;2023-08-17T00:11:27;14.05;;;8.68;;
64738;SDS011;51175;51.186;0.276;2023-08-17T00:11:57;13.18;;;8.20;;
64738;SDS011;51175;51.186;0.276;2023-08-17T00:12:28;16.98;;;8.23;;
64738;SDS011;51175;51.186;0.276;2023-08-17T00:12:58;12.63;;;7.35;;
64738;SDS011;51175;51.186;0.276;2023-08-17T00:13:29;15.60;;;8.15;;
64738;SDS011;51175;51.186;0.276;2023-08-17T00:13:59;15.75;;;8.25;;
64738;SDS011;51175;51.186;0.276;2023-08-17T00:14:29;14.80;;;8.10;;
64738;SDS011;51175;51.186;0.276;2023-08-17T00:15:00;14.82;;;8.50;;
64738;SDS011;51175;51.186;0.276;2023-08-17T00:15:31;12.98;;;7.25;;
64738;SDS011;51175;51.186;0.276;2023-08-17T00:16:02;17.88;;;8.73;;
64738;SDS011;51175;51.186;0.276;2023-08-17T00:16:33;16.52;;;8.85;;
64738;SDS011;51175;51.186;0.276;2023-08-17T00:17:03;16.88;;;8.75;;
64738;SDS011;51175;51.186;0.276;2023-08-17T00:17:33;18.50;;;7.78;;
64738;SDS011;51175;51.186;0.276;2023-08-17T00:18:04;11.30;;;6.65;;
64738;SDS011;51175;51.186;0.276;2023-08-17T00:18:34;14.63;;;9.05;;
64738;SDS011;51175;51.186;0.276;2023-08-17T00:19:04;14.80;;;8.18;;
64738;SDS011;51175;51.186;0.276;2023-08-17T00:19:35;16.65;;;9.10;;
64738;SDS011;51175;51.186;0.276;2023-08-17T00:20:05;15.32;;;8.38;;
64738;SDS011;51175;51.186;0.276;2023-08-17T00:20:36;14.20;;;7.93;;
64738;SDS011;51175;51.186;0.276;2023-08-17T00:21:07;16.38;;;8.60;;
64738;SDS011;51175;51.186;0.276;2023-08-17T00:21:37;14.88;;;7.68;;
64738;SDS011;51175;51.186;0.276;2023-08-17T00:22:08;13.98;;;7.32;;
64738;SDS011;51175;51.186;0.276;2023-08-17T00:22:38;14.35;;;8.57;;
64738;SDS011;51175;51.186;0.276;2023-08-17T00:23:08;11.45;;;7.68;;
64738;SDS011;51175;51.186;0.276;2023-08-17T00:23:39;18.15;;;7.85;;
64738;SDS011;51175;51.186;0.276;2023-08-17T00:24:09;11.82;;;7.18;;
64738;SDS011;51175;51.186;0.276;2023-08-17T00:24:39;14.20;;;7.53;;
64738;SDS011;51175;51.186;0.276;2023-08-17T00:25:11;13.73;;;8.20;;
64738;SDS011;51175;51.186;0.276;2023-08-17T00:25:42;12.65;;;7.53;;
64738;SDS011;51175;51.186;0.276;2023-08-17T00:26:13;12.10;;;7.53;;
64738;SDS011;51175;51.186;0.276;2023-08-17T00:26:44;11.80;;;7.45;;
64738;SDS011;51175;51.186;0.276;2023-08-17T00:27:14;15.07;;;8.23;;
64738;SDS011;51175;51.186;0.276;2023-08-17T00:27:44;14.07;;;7.80;;
64738;SDS011;51175;51.186;0.276;2023-08-17T00:28:15;12.52;;;7.03;;
64738;SDS011;51175;51.186;0.276;2023-08-17T00:28:45;13.02;;;7.35;;
64738;SDS011;51175;51.186;0.276;2023-08-17T00:29:15;13.50;;;7.50;;
64738;SDS011;51175;51.186;0.276;2023-08-17T00:29:47;13.23;;;7.05;;
64738;SDS011;51175;51.186;0.276;2023-08-17T00:30:17;11.65;;;7.22;;
64738;SDS011;51175;51.186;0.276;2023-08-17T00:30:47;10.68;;;6.60;;
64738;SDS011;51175;51.186;0.276;2023-08-17T00:31:18;12.05;;;6.63;;
64738;SDS011;51175;51.186;0.276;2023-08-17T00:31:48;12.68;;;7.68;;
64738;SDS011;51175;51.186;0.276;2023-08-17T00:32:19;12.38;;;7.28;;
64738;SDS011;51175;51.186;0.276;2023-08-17T00:32:49;12.95;;;6.82;;
64738;SDS011;51175;51.186;0.276;2023-08-17T00:33:19;12.45;;;7.10;;
64738;SDS011;51175;51.186;0.276;2023-08-17T00:33:50;13.05;;;7.68;;
64738;SDS011;51175;51.186;0.276;2023-08-17T00:34:20;12.57;;;7.88;;
64738;SDS011;51175;51.186;0.276;2023-08-17T00:34:50;14.70;;;7.63;;
64738;SDS011;51175;51.186;0.276;2023-08-17T00:35:21;13.80;;;7.25;;
64738;SDS011;51175;51.186;0.276;2023-08-17T00:35:51;12.63;;;7.28;;
64738;SDS011;51175;51.186;0.276;2023-08-17T00:36:21;11.30;;;7.05;;
64738;SDS011;51175;51.186;0.276;2023-08-17T00:36:52;14.23;;;7.72;;
64738;SDS011;51175;51.186;0.276;2023-08-17T00:37:22;12.48;;;7.10;;
64738;SDS011;51175;51.186;0.276;2023-08-17T00:37:52;12.23;;;7.55;;
64738;SDS011;51175;51.186;0.276;2023-08-17T00:38:23;11.60;;;7.10;;
64738;SDS011;51175;51.186;0.276;2023-08-17T00:38:53;13.23;;;7.80;;
64738;SDS011;51175;51.186;0.276;2023-08-17T00:39:23;13.43;;;7.05;;
64738;SDS011;51175;51.186;0.276;2023-08-17T00:39:54;12.57;;;6.78;;
64738;SDS011;51175;51.186;0.276;2023-08-17T00:40:24;11.45;;;6.30;;
64738;SDS011;51175;51.186;0.276;2023-08-17T00:40:55;13.43;;;7.13;;
64738;SDS011;51175;51.186;0.276;2023-08-17T00:41:25;14.90;;;7.07;;
64738;SDS011;51175;51.186;0.276;2023-08-17T00:41:55;12.55;;;7.13;;
64738;SDS011;51175;51.186;0.276;2023-08-17T00:42:26;14.43;;;7.35;;
64738;SDS011;51175;51.186;0.276;2023-08-17T00:42:56;11.77;;;6.97;;
64738;SDS011;51175;51.186;0.276;2023-08-17T00:43:27;13.57;;;6.95;;
64738;SDS011;51175;51.186;0.276;2023-08-17T00:43:57;12.85;;;7.75;;
64738;SDS011;51175;51.186;0.276;2023-08-17T00:44:28;12.25;;;7.10;;
64738;SDS011;51175;51.186;0.276;2023-08-17T00:44:58;12.43;;;6.55;;
64738;SDS011;51175;51.186;0.276;2023-08-17T00:45:28;10.98;;;6.75;;
64738;SDS011;51175;51.186;0.276;2023-08-17T00:45:59;13.02;;;7.10;;
64738;SDS011;51175;51.186;0.276;2023-08-17T00:46:30;13.18;;;6.28;;
64738;SDS011;51175;51.186;0.276;2023-08-17T00:47:00;12.73;;;6.68;;
64738;SDS011;51175;51.186;0.276;2023-08-17T00:47:31;12.07;;;7.97;;
64738;SDS011;51175;51.186;0.276;2023-08-17T00:48:02;12.18;;;6.75;;
64738;SDS011;51175;51.186;0.276;2023-08-17T00:48:35;11.20;;;6.22;;
64738;SDS011;51175;51.186;0.276;2023-08-17T00:49:06;11.75;;;6.78;;
64738;SDS011;51175;51.186;0.276;2023-08-17T00:49:36;12.45;;;6.75;;
64738;SDS011;51175;51.186;0.276;2023-08-17T00:50:07;9.82;;;6.32;;
64738;SDS011;51175;51.186;0.276;2023-08-17T00:50:38;12.57;;;6.55;;
64738;SDS011;51175;51.186;0.276;2023-08-17T00:51:10;13.65;;;6.50;;
64738;SDS011;51175;51.186;0.276;2023-08-17T00:51:41;10.70;;;5.75;;
64738;SDS011;51175;51.186;0.276;2023-08-17T00:52:11;12.57;;;6.68;;
64738;SDS011;51175;51.186;0.276;2023-08-17T00:52:42;11.18;;;6.78;;
64738;SDS011;51175;51.186;0.276;2023-08-17T00:53:12;9.88;;;6.53;;
64738;SDS011;51175;51.186;0.276;2023-08-17T00:53:46;14.32;;;6.38;;
64738;SDS011;51175;51.186;0.276;2023-08-17T00:54:17;11.40;;;6.30;;
64738;SDS011;51175;51.186;0.276;2023-08-17T00:54:54;10.75;;;6.40;;
64738;SDS011;51175;51.186;0.276;2023-08-17T00:55:25;11.85;;;6.47;;
64738;SDS011;51175;51.186;0.276;2023-08-17T00:55:55;10.68;;;5.45;;
64738;SDS011;51175;51.186;0.276;2023-08-17T00:56:28;10.82;;;5.93;;
64738;SDS011;51175;51.186;0.276;2023-08-17T00:56:59;10.85;;;6.38;;
64738;SDS011;51175;51.186;0.276;2023-08-17T00:57:31;11.45;;;6.57;;
64738;SDS011;51175;51.186;0.276;2023-08-17T00:58:02;11.38;;;6.38;;
64738;SDS011;51175;51.186;0.276;2023-08-17T00:58:33;11.45;;;6.68;;
64738;SDS011;51175;51.186;0.276;2023-08-17T00:59:03;12.88;;;6.30;;
64738;SDS011;51175;51.186;0.276;2023-08-17T00:59:34;10.18;;;6.38;;
64738;SDS011;51175;51.186;0.276;2023-08-17T01:00:04;9.27;;;5.53;;
64738;SDS011;51175;51.186;0.276;2023-08-17T01:00:36;9.55;;;6.47;;
64738;SDS011;51175;51.186;0.276;2023-08-17T01:01:06;10.98;;;5.78;;
64738;SDS011;51175;51.186;0.276;2023-08-17T01:01:37;11.98;;;5.90;;
64738;SDS011;51175;51.186;0.276;2023-08-17T01:02:08;12.23;;;6.55;;
64738;SDS011;51175;51.186;0.276;2023-08-17T01:02:39;10.88;;;5.85;;
64738;SDS011;51175;51.186;0.276;2023-08-17T01:03:11;9.75;;;7.30;;
64738;SDS011;51175;51.186;0.276;2023-08-17T01:03:42;10.40;;;6.32;;
64738;SDS011;51175;51.186;0.276;2023-08-17T01:04:12;11.07;;;6.50;;
64738;SDS011;51175;51.186;0.276;2023-08-17T01:04:43;9.45;;;5.28;;
64738;SDS011;51175;51.186;0.276;2023-08-17T01:05:13;10.65;;;6.28;;
64738;SDS011;51175;51.186;0.276;2023-08-17T01:05:43;8.45;;;5.65;;
64738;SDS011;51175;51.186;0.276;2023-08-17T01:06:14;10.95;;;6.10;;
64738;SDS011;51175;51.186;0.276;2023-08-17T01:06:44;10.77;;;5.80;;
64738;SDS011;51175;51.186;0.276;2023-08-17T01:07:15;7.45;;;5.63;;
64738;SDS011;51175;51.186;0.276;2023-08-17T01:07:45;9.43;;;5.88;;
64738;SDS011;51175;51.186;0.276;2023-08-17T01:08:15;8.45;;;5.70;;
64738;SDS011;51175;51.186;0.276;2023-08-17T01:08:46;9.77;;;6.10;;
64738;SDS011;51175;51.186;0.276;2023-08-17T01:09:17;8.23;;;5.15;;
64738;SDS011;51175;51.186;0.276;2023-08-17T01:09:47;11.95;;;5.97;;
64738;SDS011;51175;51.186;0.276;2023-08-17T01:10:18;12.55;;;6.95;;
64738;SDS011;51175;51.186;0.276;2023-08-17T01:11:53;9.90;;;5.30;;
64738;SDS011;51175;51.186;0.276;2023-08-17T01:12:38;11.63;;;5.75;;
64738;SDS011;51175;51.186;0.276;2023-08-17T01:13:24;10.38;;;5.55;;
64738;SDS011;51175;51.186;0.276;2023-08-17T01:14:14;9.93;;;5.75;;
64738;SDS011;51175;51.186;0.276;2023-08-17T01:15:04;9.15;;;4.70;;
64738;SDS011;51175;51.186;0.276;2023-08-17T01:15:52;8.40;;;5.38;;
64738;SDS011;51175;51.186;0.276;2023-08-17T01:16:28;11.02;;;6.03;;
64738;SDS011;51175;51.186;0.276;2023-08-17T01:17:17;10.40;;;5.35;;
64738;SDS011;51175;51.186;0.276;2023-08-17T01:18:27;10.85;;;5.78;;
64738;SDS011;51175;51.186;0.276;2023-08-17T01:19:01;9.65;;;5.95;;
64738;SDS011;51175;51.186;0.276;2023-08-17T01:19:37;8.95;;;5.18;;
64738;SDS011;51175;51.186;0.276;2023-08-17T01:20:09;11.20;;;5.72;;
64738;SDS011;51175;51.186;0.276;2023-08-17T01:20:43;8.63;;;5.18;;
64738;SDS011;51175;51.186;0.276;2023-08-17T01:21:14;12.93;;;6.22;;
64738;SDS011;51175;51.186;0.276;2023-08-17T01:21:49;10.80;;;5.25;;
64738;SDS011;51175;51.186;0.276;2023-08-17T01:22:21;8.38;;;4.75;;
64738;SDS011;51175;51.186;0.276;2023-08-17T01:22:55;10.77;;;5.25;;
64738;SDS011;51175;51.186;0.276;2023-08-17T01:23:27;8.27;;;5.55;;
64738;SDS011;51175;51.186;0.276;2023-08-17T01:23:58;8.63;;;5.28;;
64738;SDS011;51175;51.186;0.276;2023-08-17T01:24:32;9.10;;;4.88;;
64738;SDS011;51175;51.186;0.276;2023-08-17T01:25:02;7.88;;;4.75;;
64738;SDS011;51175;51.186;0.276;2023-08-17T01:25:33;8.70;;;4.60;;
64738;SDS011;51175;51.186;0.276;2023-08-17T01:26:06;10.38;;;5.35;;
64738;SDS011;51175;51.186;0.276;2023-08-17T01:26:37;9.57;;;5.30;;
64738;SDS011;51175;51.186;0.276;2023-08-17T01:27:07;8.15;;;5.28;;
64738;SDS011;51175;51.186;0.276;2023-08-17T01:27:41;7.78;;;4.55;;
64738;SDS011;51175;51.186;0.276;2023-08-17T01:28:13;8.27;;;4.95;;
64738;SDS011;51175;51.186;0.276;2023-08-17T01:28:44;10.13;;;5.70;;
64738;SDS011;51175;51.186;0.276;2023-08-17T01:29:16;11.13;;;4.63;;
64738;SDS011;51175;51.186;0.276;2023-08-17T01:29:46;10.20;;;5.72;;
64738;SDS011;51175;51.186;0.276;2023-08-17T01:30:17;12.30;;;6.15;;
64738;SDS011;51175;51.186;0.276;2023-08-17T01:30:58;8.80;;;4.88;;
64738;SDS011;51175;51.186;0.276;2023-08-17T01:32:30;9.23;;;4.85;;
64738;SDS011;51175;51.186;0.276;2023-08-17T01:33:23;9.30;;;5.57;;
64738;SDS011;51175;51.186;0.276;2023-08-17T01:34:04;10.02;;;5.32;;
64738;SDS011;51175;51.186;0.276;2023-08-17T01:34:43;10.45;;;5.60;;
64738;SDS011;51175;51.186;0.276;2023-08-17T01:36:22;10.48;;;4.88;;
64738;SDS011;51175;51.186;0.276;2023-08-17T01:36:57;9.52;;;5.03;;
64738;SDS011;51175;51.186;0.276;2023-08-17T01:37:31;8.75;;;4.45;;
64738;SDS011;51175;51.186;0.276;2023-08-17T01:38:06;9.63;;;4.72;;
64738;SDS011;51175;51.186;0.276;2023-08-17T01:38:40;7.88;;;4.57;;
64738;SDS011;51175;51.186;0.276;2023-08-17T01:39:10;8.13;;;4.25;;
64738;SDS011;51175;51.186;0.276;2023-08-17T01:39:43;8.27;;;4.95;;
64738;SDS011;51175;51.186;0.276;2023-08-17T01:40:15;9.35;;;5.03;;
64738;SDS011;51175;51.186;0.276;2023-08-17T01:40:46;8.07;;;4.47;;
64738;SDS011;51175;51.186;0.276;2023-08-17T01:41:19;11.90;;;4.88;;
64738;SDS011;51175;51.186;0.276;2023-08-17T01:41:52;10.35;;;5.20;;
64738;SDS011;51175;51.186;0.276;2023-08-17T01:42:26;8.20;;;4.43;;
64738;SDS011;51175;51.186;0.276;2023-08-17T01:42:58;7.80;;;4.40;;
64738;SDS011;51175;51.186;0.276;2023-08-17T01:43:29;6.95;;;4.38;;
64738;SDS011;51175;51.186;0.276;2023-08-17T01:44:00;8.50;;;4.78;;
64738;SDS011;51175;51.186;0.276;2023-08-17T01:44:31;8.20;;;4.60;;
64738;SDS011;51175;51.186;0.276;2023-08-17T01:45:03;8.75;;;4.43;;
64738;SDS011;51175;51.186;0.276;2023-08-17T01:45:34;9.60;;;4.85;;
64738;SDS011;51175;51.186;0.276;2023-08-17T01:46:05;7.32;;;4.10;;
64738;SDS011;51175;51.186;0.276;2023-08-17T01:46:37;6.70;;;4.35;;
64738;SDS011;51175;51.186;0.276;2023-08-17T01:47:08;8.25;;;4.10;;
64738;SDS011;51175;51.186;0.276;2023-08-17T01:47:39;5.95;;;4.10;;
64738;SDS011;51175;51.186;0.276;2023-08-17T01:48:09;7.57;;;4.75;;
64738;SDS011;51175;51.186;0.276;2023-08-17T01:48:40;7.65;;;4.60;;
64738;SDS011;51175;51.186;0.276;2023-08-17T01:49:10;6.13;;;4.05;;
64738;SDS011;51175;51.186;0.276;2023-08-17T01:49:41;7.15;;;4.50;;
64738;SDS011;51175;51.186;0.276;2023-08-17T01:50:11;7.97;;;3.72;;
64738;SDS011;51175;51.186;0.276;2023-08-17T01:50:41;7.28;;;4.63;;
64738;SDS011;51175;51.186;0.276;2023-08-17T01:51:15;6.25;;;3.78;;
64738;SDS011;51175;51.186;0.276;2023-08-17T01:51:49;8.32;;;4.70;;
64738;SDS011;51175;51.186;0.276;2023-08-17T01:52:20;8.50;;;4.43;;
64738;SDS011;51175;51.186;0.276;2023-08-17T01:52:50;6.53;;;3.60;;
64738;SDS011;51175;51.186;0.276;2023-08-17T01:53:21;8.30;;;4.00;;
64738;SDS011;51175;51.186;0.276;2023-08-17T01:53:51;8.15;;;4.13;;
64738;SDS011;51175;51.186;0.276;2023-08-17T01:54:22;10.05;;;4.07;;
64738;SDS011;51175;51.186;0.276;2023-08-17T01:54:52;6.55;;;3.67;;
64738;SDS011;51175;51.186;0.276;2023-08-17T01:55:23;8.00;;;4.13;;
64738;SDS011;51175;51.186;0.276;2023-08-17T01:55:53;6.78;;;3.80;;
64738;SDS011;51175;51.186;0.276;2023-08-17T01:56:23;7.65;;;4.70;;
64738;SDS011;51175;51.186;0.276;2023-08-17T01:56:54;6.53;;;4.07;;
64738;SDS011;51175;51.186;0.276;2023-08-17T01:57:24;8.80;;;4.15;;
64738;SDS011;51175;51.186;0.276;2023-08-17T01:57:54;10.88;;;3.60;;
64738;SDS011;51175;51.186;0.276;2023-08-17T01:58:25;7.07;;;3.97;;
64738;SDS011;51175;51.186;0.276;2023-08-17T01:58:55;7.68;;;4.00;;
64738;SDS011;51175;51.186;0.276;2023-08-17T01:59:26;7.00;;;3.55;;
64738;SDS011;51175;51.186;0.276;2023-08-17T01:59:56;8.35;;;3.50;;
64738;SDS011;51175;51.186;0.276;2023-08-17T02:00:26;6.78;;;3.58;;
64738;SDS011;51175;51.186;0.276;2023-08-17T02:00:56;6.50;;;3.65;;
64738;SDS011;51175;51.186;0.276;2023-08-17T02:01:27;6.05;;;4.00;;
64738;SDS011;51175;51.186;0.276;2023-08-17T02:01:58;6.32;;;3.80;;
64738;SDS011;51175;51.186;0.276;2023-08-17T02:02:28;8.70;;;3.60;;
64738;SDS011;51175;51.186;0.276;2023-08-17T02:02:58;5.10;;;3.13;;
64738;SDS011;51175;51.186;0.276;2023-08-17T02:03:29;5.43;;;3.67;;
64738;SDS011;51175;51.186;0.276;2023-08-17T02:03:59;6.40;;;3.70;;
64738;SDS011;51175;51.186;0.276;2023-08-17T02:04:32;5.80;;;3.50;;
64738;SDS011;51175;51.186;0.276;2023-08-17T02:05:02;8.90;;;4.70;;
64738;SDS011;51175;51.186;0.276;2023-08-17T02:05:33;7.47;;;4.10;;
64738;SDS011;51175;51.186;0.276;2023-08-17T02:06:03;7.75;;;4.20;;
64738;SDS011;51175;51.186;0.276;2023-08-17T02:06:33;6.60;;;3.88;;
64738;SDS011;51175;51.186;0.276;2023-08-17T02:07:04;6.20;;;3.65;;
64738;SDS011;51175;51.186;0.276;2023-08-17T02:07:34;6.70;;;3.20;;
64738;SDS011;51175;51.186;0.276;2023-08-17T02:08:04;8.65;;;4.35;;
64738;SDS011;51175;51.186;0.276;2023-08-17T02:08:35;6.55;;;3.53;;
64738;SDS011;51175;51.186;0.276;2023-08-17T02:09:07;5.30;;;3.22;;
64738;SDS011;51175;51.186;0.276;2023-08-17T02:09:37;7.20;;;4.22;;
64738;SDS011;51175;51.186;0.276;2023-08-17T02:10:08;5.40;;;3.55;;
64738;SDS011;51175;51.186;0.276;2023-08-17T02:10:38;6.40;;;3.60;;
64738;SDS011;51175;51.186;0.276;2023-08-17T02:11:09;7.57;;;3.13;;
64738;SDS011;51175;51.186;0.276;2023-08-17T02:11:40;7.38;;;3.95;;
64738;SDS011;51175;51.186;0.276;2023-08-17T02:12:10;5.25;;;3.40;;
64738;SDS011;51175;51.186;0.276;2023-08-17T02:12:40;5.32;;;3.22;;
64738;SDS011;51175;51.186;0.276;2023-08-17T02:13:11;4.63;;;3.00;;
64738;SDS011;51175;51.186;0.276;2023-08-17T02:13:42;6.97;;;3.72;;
64738;SDS011;51175;51.186;0.276;2023-08-17T02:14:12;6.82;;;3.53;;
64738;SDS011;51175;51.186;0.276;2023-08-17T02:14:43;5.88;;;3.33;;
64738;SDS011;51175;51.186;0.276;2023-08-17T02:15:13;5.70;;;3.50;;
64738;SDS011;51175;51.186;0.276;2023-08-17T02:15:44;6.65;;;3.60;;
64738;SDS011;51175;51.186;0.276;2023-08-17T02:16:14;8.50;;;3.63;;
64738;SDS011;51175;51.186;0.276;2023-08-17T02:16:45;7.00;;;3.88;;
64738;SDS011;51175;51.186;0.276;2023-08-17T02:17:15;6.25;;;3.28;;
64738;SDS011;51175;51.186;0.276;2023-08-17T02:17:46;6.13;;;3.35;;
64738;SDS011;51175;51.186;0.276;2023-08-17T02:18:16;7.68;;;3.50;;
64738;SDS011;51175;51.186;0.276;2023-08-17T02:18:47;6.88;;;3.22;;
64738;SDS011;51175;51.186;0.276;2023-08-17T02:19:17;7.65;;;3.95;;
64738;SDS011;51175;51.186;0.276;2023-08-17T02:19:47;8.23;;;3.35;;
64738;SDS011;51175;51.186;0.276;2023-08-17T02:20:18;4.88;;;3.25;;
64738;SDS011;51175;51.186;0.276;2023-08-17T02:20:48;5.15;;;3.17;;
64738;SDS011;51175;51.186;0.276;2023-08-17T02:21:18;6.07;;;3.40;;
64738;SDS011;51175;51.186;0.276;2023-08-17T02:21:49;7.13;;;3.00;;
64738;SDS011;51175;51.186;0.276;2023-08-17T02:22:19;5.65;;;3.05;;
64738;SDS011;51175;51.186;0.276;2023-08-17T02:22:49;4.63;;;3.22;;
64738;SDS011;51175;51.186;0.276;2023-08-17T02:23:20;5.50;;;3.03;;
64738;SDS011;51175;51.186;0.276;2023-08-17T02:23:50;7.53;;;2.95;;
64738;SDS011;51175;51.186;0.276;2023-08-17T02:24:20;8.68;;;2.80;;
64738;SDS011;51175;51.186;0.276;2023-08-17T02:24:51;6.28;;;3.17;;
64738;SDS011;51175;51.186;0.276;2023-08-17T02:25:21;6.40;;;4.20;;
64738;SDS011;51175;51.186;0.276;2023-08-17T02:25:51;5.30;;;3.08;;
64738;SDS011;51175;51.186;0.276;2023-08-17T02:26:22;6.47;;;3.55;;
64738;SDS011;51175;51.186;0.276;2023-08-17T02:26:52;8.10;;;3.30;;
64738;SDS011;51175;51.186;0.276;2023-08-17T02:27:22;4.97;;;3.17;;
64738;SDS011;51175;51.186;0.276;2023-08-17T02:27:53;5.70;;;2.95;;
64738;SDS011;51175;51.186;0.276;2023-08-17T02:28:23;7.53;;;4.15;;
64738;SDS011;51175;51.186;0.276;2023-08-17T02:28:53;7.00;;;2.85;;
64738;SDS011;51175;51.186;0.276;2023-08-17T02:29:24;4.63;;;2.80;;
64738;SDS011;51175;51.186;0.276;2023-08-17T02:29:54;6.38;;;3.30;;
64738;SDS011;51175;51.186;0.276;2023-08-17T02:30:24;5.60;;;2.75;;
64738;SDS011;51175;51.186;0.276;2023-08-17T02:30:55;5.95;;;3.13;;
64738;SDS011;51175;51.186;0.276;2023-08-17T02:31:26;4.85;;;2.72;;
64738;SDS011;51175;51.186;0.276;2023-08-17T02:31:57;6.55;;;3.33;;
64738;SDS011;51175;51.186;0.276;2023-08-17T02:32:27;5.97;;;3.05;;
64738;SDS011;51175;51.186;0.276;2023-08-17T02:32:57;5.95;;;2.97;;
64738;SDS011;51175;51.186;0.276;2023-08-17T02:33:28;6.45;;;3.08;;
64738;SDS011;51175;51.186;0.276;2023-08-17T02:33:58;6.20;;;3.03;;
64738;SDS011;51175;51.186;0.276;2023-08-17T02:34:34;7.18;;;2.90;;
64738;SDS011;51175;51.186;0.276;2023-08-17T02:35:05;6.38;;;2.83;;
64738;SDS011;51175;51.186;0.276;2023-08-17T02:35:36;6.10;;;3.20;;
64738;SDS011;51175;51.186;0.276;2023-08-17T02:36:06;5.40;;;3.17;;
64738;SDS011;51175;51.186;0.276;2023-08-17T02:36:37;6.75;;;3.17;;
64738;SDS011;51175;51.186;0.276;2023-08-17T02:37:07;5.53;;;3.33;;
64738;SDS011;51175;51.186;0.276;2023-08-17T02:37:37;6.82;;;3.95;;
64738;SDS011;51175;51.186;0.276;2023-08-17T02:38:08;5.40;;;3.03;;
64738;SDS011;51175;51.186;0.276;2023-08-17T02:38:38;6.13;;;2.65;;
64738;SDS011;51175;51.186;0.276;2023-08-17T02:39:09;6.05;;;2.80;;
64738;SDS011;51175;51.186;0.276;2023-08-17T02:39:39;7.45;;;3.17;;
64738;SDS011;51175;51.186;0.276;2023-08-17T02:40:10;5.88;;;3.00;;
64738;SDS011;51175;51.186;0.276;2023-08-17T02:40:41;10.25;;;3.65;;
64738;SDS011;51175;51.186;0.276;2023-08-17T02:41:11;4.93;;;3.10;;
64738;SDS011;51175;51.186;0.276;2023-08-17T02:41:42;6.25;;;3.33;;
64738;SDS011;51175;51.186;0.276;2023-08-17T02:42:14;5.78;;;3.03;;
64738;SDS011;51175;51.186;0.276;2023-08-17T02:42:45;6.15;;;2.85;;
64738;SDS011;51175;51.186;0.276;2023-08-17T02:43:15;4.85;;;2.55;;
64738;SDS011;51175;51.186;0.276;2023-08-17T02:43:46;5.22;;;2.78;;
64738;SDS011;51175;51.186;0.276;2023-08-17T02:44:16;5.05;;;3.40;;
64738;SDS011;51175;51.186;0.276;2023-08-17T02:44:46;5.18;;;2.72;;
64738;SDS011;51175;51.186;0.276;2023-08-17T02:45:17;3.80;;;2.72;;
64738;SDS011;51175;51.186;0.276;2023-08-17T02:45:47;3.42;;;2.58;;
64738;SDS011;51175;51.186;0.276;2023-08-17T02:46:17;4.63;;;2.70;;
64738;SDS011;51175;51.186;0.276;2023-08-17T02:46:48;5.07;;;3.10;;
64738;SDS011;51175;51.186;0.276;2023-08-17T02:47:18;5.40;;;2.80;;
64738;SDS011;51175;51.186;0.276;2023-08-17T02:47:49;5.47;;;3.25;;
64738;SDS011;51175;51.186;0.276;2023-08-17T02:48:19;7.00;;;2.63;;
64738;SDS011;51175;51.186;0.276;2023-08-17T02:48:49;5.00;;;2.63;;
64738;SDS011;51175;51.186;0.276;2023-08-17T02:49:21;5.03;;;2.72;;
64738;SDS011;51175;51.186;0.276;2023-08-17T02:49:51;5.32;;;2.65;;
64738;SDS011;51175;51.186;0.276;2023-08-17T02:50:21;6.38;;;2.50;;
64738;SDS011;51175;51.186;0.276;2023-08-17T02:50:52;6.63;;;2.80;;
64738;SDS011;51175;51.186;0.276;2023-08-17T02:51:22;5.63;;;2.83;;
64738;SDS011;51175;51.186;0.276;2023-08-17T02:51:52;6.32;;;2.78;;
64738;SDS011;51175;51.186;0.276;2023-08-17T02:52:23;5.38;;;2.75;;
64738;SDS011;51175;51.186;0.276;2023-08-17T02:52:53;5.18;;;2.83;;
64738;SDS011;51175;51.186;0.276;2023-08-17T02:53:23;4.72;;;2.22;;
64738;SDS011;51175;51.186;0.276;2023-08-17T02:53:54;5.68;;;3.15;;
64738;SDS011;51175;51.186;0.276;2023-08-17T02:54:24;5.38;;;2.92;;
64738;SDS011;51175;51.186;0.276;2023-08-17T02:54:54;4.93;;;2.95;;
64738;SDS011;51175;51.186;0.276;2023-08-17T02:55:25;5.28;;;2.90;;
64738;SDS011;51175;51.186;0.276;2023-08-17T02:55:55;5.22;;;3.17;;
64738;SDS011;51175;51.186;0.276;2023-08-17T02:56:26;5.65;;;2.88;;
64738;SDS011;51175;51.186;0.276;2023-08-17T02:56:57;5.18;;;3.63;;
64738;SDS011;51175;51.186;0.276;2023-08-17T02:57:28;4.10;;;2.65;;
64738;SDS011;51175;51.186;0.276;2023-08-17T02:57:58;5.57;;;2.95;;
64738;SDS011;51175;51.186;0.276;2023-08-17T02:58:28;5.10;;;2.42;;
64738;SDS011;51175;51.186;0.276;2023-08-17T02:58:58;5.30;;;2.53;;
64738;SDS011;51175;51.186;0.276;2023-08-17T02:59:29;4.95;;;2.45;;
64738;SDS011;51175;51.186;0.276;2023-08-17T02:59:59;3.83;;;2.30;;
64738;SDS011;51175;51.186;0.276;2023-08-17T03:00:30;4.85;;;2.90;;
64738;SDS011;51175;51.186;0.276;2023-08-17T03:01:02;3.85;;;2.42;;
64738;SDS011;51175;51.186;0.276;2023-08-17T03:01:33;9.65;;;2.40;;
64738;SDS011;51175;51.186;0.276;2023-08-17T03:02:03;3.75;;;2.50;;
64738;SDS011;51175;51.186;0.276;2023-08-17T03:02:34;6.82;;;2.67;;
64738;SDS011;51175;51.186;0.276;2023-08-17T03:03:04;4.60;;;2.50;;
64738;SDS011;51175;51.186;0.276;2023-08-17T03:03:35;5.57;;;2.40;;
64738;SDS011;51175;51.186;0.276;2023-08-17T03:04:06;3.97;;;2.40;;
64738;SDS011;51175;51.186;0.276;2023-08-17T03:04:36;3.83;;;2.25;;
64738;SDS011;51175;51.186;0.276;2023-08-17T03:05:06;7.70;;;2.72;;
64738;SDS011;51175;51.186;0.276;2023-08-17T03:05:37;5.15;;;2.70;;
64738;SDS011;51175;51.186;0.276;2023-08-17T03:06:07;4.95;;;2.90;;
64738;SDS011;51175;51.186;0.276;2023-08-17T03:06:37;4.43;;;2.47;;
64738;SDS011;51175;51.186;0.276;2023-08-17T03:07:08;5.60;;;3.00;;
64738;SDS011;51175;51.186;0.276;2023-08-17T03:07:38;5.22;;;2.40;;
64738;SDS011;51175;51.186;0.276;2023-08-17T03:08:08;5.90;;;2.83;;
64738;SDS011;51175;51.186;0.276;2023-08-17T03:08:39;5.15;;;2.72;;
64738;SDS011;51175;51.186;0.276;2023-08-17T03:09:09;5.45;;;2.67;;
64738;SDS011;51175;51.186;0.276;2023-08-17T03:09:40;4.15;;;2.40;;
64738;SDS011;51175;51.186;0.276;2023-08-17T03:10:11;6.20;;;2.53;;
64738;SDS011;51175;51.186;0.276;2023-08-17T03:10:41;3.90;;;2.22;;
64738;SDS011;51175;51.186;0.276;2023-08-17T03:11:12;4.72;;;2.13;;